Time;durP1;ratioP1;P1;durP2;ratioP2;P2;SDS_P1;SDS_P2;PMS_P1;PMS_P2;Temp;Humidity;BMP_temperature;BMP_pressure;BME280_temperature;BME280_humidity;BME280_pressure;Samples;Min_cycle;Max_cycle;Signal;HPM_P1;HPM_P2
2022/01/31 00:00:37;;;;;;;26.85;5.47;;;3.90;99.90;;;;;;4979522;28;20108;-68
2022/01/31 00:03:03;;;;;;;25.35;5.75;;;3.90;99.90;;;;;;4980156;28;20093;-70
2022/01/31 00:05:29;;;;;;;24.77;5.13;;;3.90;99.90;;;;;;4979338;28;20086;-67
2022/01/31 00:07:54;;;;;;;27.08;5.00;;;3.90;99.90;;;;;;4981124;28;20096;-68
2022/01/31 00:10:31;;;;;;;28.15;5.53;;;3.90;99.90;;;;;;4996516;28;20034;-68
2022/01/31 00:13:07;;;;;;;23.35;4.63;;;3.90;99.90;;;;;;4995416;28;20442;-69
2022/01/31 00:15:38;;;;;;;18.17;4.72;;;3.80;99.90;;;;;;4993822;28;20038;-68
2022/01/31 00:18:05;;;;;;;17.58;4.28;;;3.80;99.90;;;;;;4996312;28;20050;-70
2022/01/31 00:20:30;;;;;;;22.05;5.28;;;3.80;99.90;;;;;;4978941;28;20111;-69
2022/01/31 00:22:56;;;;;;;23.55;4.90;;;3.80;99.90;;;;;;4996421;28;20050;-69
2022/01/31 00:25:22;;;;;;;23.38;5.25;;;3.80;99.90;;;;;;4979002;28;20054;-69
2022/01/31 00:27:47;;;;;;;18.77;5.43;;;3.80;99.90;;;;;;4979150;28;20103;-69
2022/01/31 00:30:14;;;;;;;25.20;5.38;;;3.80;99.90;;;;;;4995947;28;20062;-68
2022/01/31 00:32:39;;;;;;;23.05;5.35;;;3.80;99.90;;;;;;4979157;28;20121;-69
2022/01/31 00:35:06;;;;;;;30.55;5.85;;;4.10;99.90;;;;;;4979059;28;20534;-70
2022/01/31 00:37:32;;;;;;;18.15;4.97;;;3.80;99.90;;;;;;4978725;28;20058;-70
2022/01/31 00:39:58;;;;;;;28.08;6.82;;;3.80;99.90;;;;;;4978872;28;20152;-69
2022/01/31 00:42:26;;;;;;;17.27;5.72;;;3.90;99.90;;;;;;4978584;28;20494;-69
2022/01/31 00:44:59;;;;;;;21.67;6.05;;;4.20;99.90;;;;;;4978677;28;20050;-69
2022/01/31 00:47:28;;;;;;;25.73;6.07;;;3.90;99.90;;;;;;4996148;28;20395;-66
2022/01/31 00:50:05;;;;;;;32.72;6.43;;;4.20;99.90;;;;;;4996051;28;20153;-69
2022/01/31 00:52:32;;;;;;;24.40;6.82;;;3.90;99.90;;;;;;4995147;28;20101;-69
2022/01/31 00:54:57;;;;;;;30.33;6.70;;;3.90;99.90;;;;;;4995324;28;20463;-69
2022/01/31 00:57:23;;;;;;;23.40;6.43;;;3.90;99.90;;;;;;4995828;28;20077;-69
2022/01/31 00:59:51;;;;;;;29.33;6.93;;;3.90;99.90;;;;;;4995522;28;20088;-69
2022/01/31 01:02:17;;;;;;;23.30;6.63;;;4.10;99.90;;;;;;4978758;28;20054;-68
2022/01/31 01:04:43;;;;;;;24.45;7.45;;;4.00;99.90;;;;;;4995671;28;20447;-69
2022/01/31 01:07:09;;;;;;;25.27;8.10;;;3.90;99.90;;;;;;4995479;28;20046;-69
2022/01/31 01:09:34;;;;;;;27.92;6.78;;;4.00;99.90;;;;;;4994964;28;20077;-67
2022/01/31 01:12:00;;;;;;;27.95;7.47;;;4.00;99.90;;;;;;4995903;28;20122;-69
2022/01/31 01:14:26;;;;;;;23.45;7.47;;;4.00;99.90;;;;;;4995143;28;20066;-69
2022/01/31 01:16:51;;;;;;;29.02;8.00;;;4.00;99.90;;;;;;4995759;28;20104;-70
2022/01/31 01:19:17;;;;;;;24.17;8.15;;;4.00;99.90;;;;;;4962330;28;20089;-69
2022/01/31 01:21:42;;;;;;;28.42;9.27;;;3.90;99.90;;;;;;4978535;28;20367;-69
2022/01/31 01:24:08;;;;;;;23.38;8.07;;;4.00;99.90;;;;;;4979035;28;20046;-69
2022/01/31 01:26:34;;;;;;;35.60;8.82;;;3.90;99.90;;;;;;4999516;28;20188;-69
2022/01/31 01:28:59;;;;;;;24.52;8.23;;;3.90;99.90;;;;;;4999405;28;20054;-69
2022/01/31 01:31:26;;;;;;;30.73;9.20;;;3.90;99.90;;;;;;4999497;28;20366;-68
2022/01/31 01:33:53;;;;;;;37.00;10.23;;;3.90;99.90;;;;;;4982237;28;20127;-67
2022/01/31 01:36:20;;;;;;;30.95;10.02;;;3.90;99.90;;;;;;4999374;28;20054;-69
2022/01/31 01:38:46;;;;;;;32.20;10.68;;;3.90;99.90;;;;;;4982069;28;20063;-69
2022/01/31 01:41:11;;;;;;;37.10;11.43;;;3.80;99.90;;;;;;4982513;28;20057;-70
2022/01/31 01:43:38;;;;;;;36.15;12.50;;;3.80;99.90;;;;;;4999042;28;20046;-68
2022/01/31 01:46:03;;;;;;;30.05;13.10;;;3.80;99.90;;;;;;4982066;28;20474;-69
2022/01/31 01:48:29;;;;;;;29.83;13.25;;;3.80;99.90;;;;;;4982122;28;20042;-69
2022/01/31 01:50:55;;;;;;;28.75;13.07;;;3.70;99.90;;;;;;4999240;28;20054;-69
2022/01/31 01:53:22;;;;;;;35.03;13.57;;;3.70;99.90;;;;;;4999111;28;20575;-67
2022/01/31 01:55:51;;;;;;;35.20;14.13;;;3.70;99.90;;;;;;4997662;28;20125;-68
2022/01/31 01:58:17;;;;;;;39.00;15.48;;;3.60;99.90;;;;;;4999295;28;20371;-69
2022/01/31 02:00:50;;;;;;;35.17;15.68;;;3.60;99.90;;;;;;4981895;28;20054;-69
2022/01/31 02:03:17;;;;;;;;;;;3.60;99.90;;;;;;4999372;28;20052;-69
2022/01/31 02:05:43;;;;;;;31.77;15.57;;;3.60;99.90;;;;;;4997690;28;19932;-68
2022/01/31 02:08:12;;;;;;;41.70;17.92;;;3.60;99.90;;;;;;4965517;28;20088;-67
2022/01/31 02:10:37;;;;;;;28.98;16.05;;;3.50;99.90;;;;;;4982135;28;20077;-68
2022/01/31 02:13:05;;;;;;;31.42;16.65;;;3.50;99.90;;;;;;4981701;28;20132;-69
2022/01/31 02:15:31;;;;;;;29.83;15.52;;;3.50;99.90;;;;;;4998679;28;20089;-69
2022/01/31 02:17:56;;;;;;;40.20;16.77;;;3.50;99.90;;;;;;4981202;28;20082;-68
2022/01/31 02:20:22;;;;;;;29.60;16.27;;;3.40;99.90;;;;;;4998768;28;20042;-69
2022/01/31 02:22:49;;;;;;;31.25;17.63;;;3.50;99.90;;;;;;4998871;28;20410;-68
2022/01/31 02:25:15;;;;;;;28.10;16.85;;;3.40;99.90;;;;;;4998328;28;20053;-69
2022/01/31 02:27:41;;;;;;;25.23;15.57;;;3.40;99.90;;;;;;4998793;28;20057;-67
2022/01/31 02:30:09;;;;;;;26.70;15.55;;;3.30;99.90;;;;;;4981353;28;20050;-67
2022/01/31 02:32:35;;;;;;;24.67;16.27;;;3.30;99.90;;;;;;4981882;28;20054;-66
2022/01/31 02:35:01;;;;;;;26.98;17.40;;;3.30;99.90;;;;;;4980941;28;20053;-69
2022/01/31 02:37:27;;;;;;;30.08;16.95;;;3.30;99.90;;;;;;4996832;28;20382;-68
2022/01/31 02:39:52;;;;;;;32.10;17.27;;;3.30;99.90;;;;;;4998119;28;20070;-67
2022/01/31 02:42:18;;;;;;;30.00;18.38;;;3.30;99.90;;;;;;4981219;28;20042;-69
2022/01/31 02:44:45;;;;;;;30.17;17.73;;;3.30;99.90;;;;;;4997779;28;20074;-67
2022/01/31 02:47:16;;;;;;;32.17;18.80;;;3.30;99.90;;;;;;4980558;28;20054;-67
2022/01/31 02:50:02;;;;;;;31.70;17.98;;;3.30;99.90;;;;;;4997475;28;20050;-69
2022/01/31 02:52:33;;;;;;;29.85;17.50;;;3.30;99.90;;;;;;4997488;28;20042;-68
2022/01/31 02:54:59;;;;;;;28.02;17.90;;;3.30;99.90;;;;;;4980858;28;20069;-67
2022/01/31 02:57:24;;;;;;;29.27;17.35;;;3.40;99.90;;;;;;4980591;28;20054;-69
2022/01/31 02:59:50;;;;;;;25.92;16.17;;;3.30;99.90;;;;;;4997670;28;20337;-67
2022/01/31 03:02:16;;;;;;;28.38;17.38;;;3.40;99.90;;;;;;4980981;28;20061;-69
2022/01/31 03:04:41;;;;;;;29.95;16.70;;;3.40;99.90;;;;;;4980456;28;20065;-69
2022/01/31 03:07:07;;;;;;;28.67;17.23;;;3.40;99.90;;;;;;4980431;28;20474;-67
2022/01/31 03:09:32;;;;;;;24.85;15.88;;;3.40;99.90;;;;;;4981008;28;20450;-67
2022/01/31 03:11:59;;;;;;;27.98;15.90;;;3.50;99.90;;;;;;4980697;28;20136;-67
2022/01/31 03:14:25;;;;;;;30.08;15.57;;;3.50;99.90;;;;;;4993371;28;20058;-67
2022/01/31 03:16:51;;;;;;;24.45;15.13;;;3.50;99.90;;;;;;4997265;28;20495;-68
2022/01/31 03:19:18;;;;;;;25.25;14.02;;;3.60;99.90;;;;;;4980439;28;20149;-68
2022/01/31 03:21:44;;;;;;;27.85;15.35;;;3.60;99.90;;;;;;4979817;28;20054;-68
2022/01/31 03:24:10;;;;;;;22.88;14.52;;;3.50;99.90;;;;;;4980440;28;20080;-69
2022/01/31 03:26:37;;;;;;;19.95;12.65;;;3.60;99.90;;;;;;4980443;28;20054;-67
2022/01/31 03:29:04;;;;;;;23.92;13.15;;;4.20;99.90;;;;;;4980055;28;20061;-69
2022/01/31 03:31:30;;;;;;;23.63;13.45;;;3.70;99.90;;;;;;4995983;28;20112;-68
2022/01/31 03:33:56;;;;;;;18.92;11.90;;;3.70;99.90;;;;;;4980755;28;20050;-66
2022/01/31 03:36:22;;;;;;;20.30;12.50;;;3.80;99.90;;;;;;4980649;28;20058;-69
2022/01/31 03:38:48;;;;;;;24.33;12.18;;;3.70;99.90;;;;;;4997067;28;20498;-69
2022/01/31 03:41:19;;;;;;;21.17;11.85;;;3.70;99.90;;;;;;4995725;28;20049;-68
2022/01/31 03:43:45;;;;;;;27.25;11.90;;;3.80;99.90;;;;;;4978955;28;20065;-69
2022/01/31 03:46:11;;;;;;;22.50;10.45;;;3.80;99.90;;;;;;4980211;28;20046;-68
2022/01/31 03:48:36;;;;;;;26.00;10.55;;;3.90;99.90;;;;;;4996749;28;20056;-68
2022/01/31 03:51:05;;;;;;;18.52;9.70;;;3.90;99.90;;;;;;4979577;28;20046;-67
2022/01/31 03:53:31;;;;;;;23.08;9.95;;;4.00;99.90;;;;;;4979567;28;20172;-68
2022/01/31 03:55:57;;;;;;;30.67;10.52;;;4.00;99.90;;;;;;4996978;28;20050;-67
2022/01/31 03:58:23;;;;;;;23.70;9.75;;;4.10;99.90;;;;;;4996604;28;20046;-69
2022/01/31 04:00:49;;;;;;;27.75;9.07;;;4.20;99.90;;;;;;4996920;28;20454;-69
2022/01/31 04:03:15;;;;;;;30.38;9.18;;;4.30;99.90;;;;;;4979441;28;20065;-68
2022/01/31 04:05:41;;;;;;;25.63;9.88;;;4.40;99.90;;;;;;4996865;28;20061;-68
2022/01/31 04:08:08;;;;;;;28.92;7.72;;;4.40;99.90;;;;;;4996444;28;20454;-67
2022/01/31 04:10:36;;;;;;;31.33;7.55;;;4.80;99.90;;;;;;4980981;28;20093;-69
2022/01/31 04:13:03;;;;;;;36.17;7.32;;;4.60;99.90;;;;;;4995843;28;20459;-68
2022/01/31 04:15:29;;;;;;;32.88;6.65;;;4.70;99.90;;;;;;4996612;28;20133;-68
2022/01/31 04:17:54;;;;;;;31.38;5.30;;;4.80;99.90;;;;;;4978938;28;20129;-68
2022/01/31 04:20:20;;;;;;;28.55;5.25;;;4.90;99.90;;;;;;4996179;28;20050;-68
2022/01/31 04:22:58;;;;;;;25.20;4.45;;;4.90;99.90;;;;;;4979334;28;20050;-68
2022/01/31 04:25:41;;;;;;;22.40;4.10;;;5.00;99.90;;;;;;4996055;28;20054;-68
2022/01/31 04:28:16;;;;;;;31.55;5.35;;;5.10;99.90;;;;;;4996342;28;20403;-68
2022/01/31 04:30:49;;;;;;;21.27;3.97;;;5.10;99.90;;;;;;4979129;28;20043;-68
2022/01/31 04:33:14;;;;;;;21.65;3.53;;;5.20;99.90;;;;;;4979015;28;20116;-68
2022/01/31 04:35:40;;;;;;;23.13;3.78;;;5.20;99.90;;;;;;4995537;28;20046;-69
2022/01/31 04:38:05;;;;;;;14.57;3.00;;;5.20;99.90;;;;;;4996106;28;20060;-67
2022/01/31 04:40:31;;;;;;;26.08;3.33;;;5.20;99.90;;;;;;4995495;28;20060;-68
2022/01/31 04:42:57;;;;;;;24.73;3.60;;;5.20;99.90;;;;;;4978756;28;20077;-69
2022/01/31 04:45:22;;;;;;;19.88;3.15;;;5.20;99.90;;;;;;4978571;28;20058;-68
2022/01/31 04:47:48;;;;;;;20.80;3.80;;;5.20;99.90;;;;;;4978771;28;20443;-69
2022/01/31 04:50:13;;;;;;;23.27;3.22;;;5.20;99.90;;;;;;4978877;28;20183;-68
2022/01/31 04:52:42;;;;;;;19.30;2.85;;;5.10;99.90;;;;;;4978653;28;20475;-67
2022/01/31 04:55:08;;;;;;;15.18;2.78;;;5.10;99.90;;;;;;4995870;28;20050;-68
2022/01/31 04:57:34;;;;;;;22.65;3.25;;;5.00;99.90;;;;;;4995933;28;20505;-69
2022/01/31 05:00:00;;;;;;;22.42;3.25;;;5.00;99.90;;;;;;4995074;28;20102;-69
2022/01/31 05:02:26;;;;;;;25.88;3.55;;;4.90;99.90;;;;;;4995642;28;20077;-69
2022/01/31 05:04:51;;;;;;;17.40;3.47;;;4.90;99.90;;;;;;4995179;28;20174;-69
2022/01/31 05:07:17;;;;;;;23.15;3.10;;;4.80;99.90;;;;;;4978540;28;20061;-67
2022/01/31 05:09:44;;;;;;;25.60;4.65;;;4.80;99.90;;;;;;4978574;28;20050;-68
2022/01/31 05:12:10;;;;;;;21.80;3.38;;;4.80;99.90;;;;;;4991458;28;20119;-67
2022/01/31 05:14:36;;;;;;;21.42;3.75;;;4.80;99.90;;;;;;4994777;28;20054;-68
2022/01/31 05:17:01;;;;;;;22.33;4.25;;;4.80;99.90;;;;;;4994473;28;20061;-67
2022/01/31 05:19:27;;;;;;;29.70;3.75;;;4.80;99.90;;;;;;4995053;28;20046;-69
2022/01/31 05:21:52;;;;;;;27.02;3.85;;;4.80;99.90;;;;;;4978068;28;20078;-69
2022/01/31 05:24:18;;;;;;;30.48;3.78;;;4.80;99.90;;;;;;4978761;28;20136;-67
2022/01/31 05:26:44;;;;;;;13.07;2.03;;;4.90;99.90;;;;;;4980216;28;20046;-65
2022/01/31 05:29:09;;;;;;;14.52;2.00;;;4.90;99.90;;;;;;5011453;28;20525;-68
2022/01/31 05:31:35;;;;;;;8.45;1.38;;;4.80;99.90;;;;;;4999557;28;20117;-69
2022/01/31 05:34:00;;;;;;;10.82;2.25;;;4.80;99.90;;;;;;5006881;28;20474;-68
2022/01/31 05:36:26;;;;;;;6.45;1.67;;;4.80;99.90;;;;;;4977725;28;20130;-69
2022/01/31 05:38:51;;;;;;;11.50;2.58;;;4.70;99.90;;;;;;4978109;28;20054;-68
2022/01/31 05:41:19;;;;;;;11.07;1.60;;;4.60;99.90;;;;;;4995049;28;20060;-67
2022/01/31 05:43:46;;;;;;;7.68;1.70;;;4.60;99.90;;;;;;4995304;28;20073;-68
2022/01/31 05:46:12;;;;;;;11.52;1.98;;;4.60;99.90;;;;;;4977874;28;20467;-68
2022/01/31 05:48:37;;;;;;;10.93;1.92;;;4.50;99.90;;;;;;4995379;28;20045;-68
2022/01/31 05:51:04;;;;;;;10.57;1.80;;;4.50;99.90;;;;;;4995114;28;20132;-68
2022/01/31 05:53:30;;;;;;;9.13;1.70;;;4.50;99.90;;;;;;4977920;28;20051;-69
2022/01/31 05:55:57;;;;;;;7.93;1.50;;;4.40;99.90;;;;;;4978276;28;20050;-68
2022/01/31 05:58:23;;;;;;;9.18;1.80;;;4.50;99.90;;;;;;4995519;28;20144;-68
2022/01/31 06:00:48;;;;;;;11.02;1.77;;;4.40;99.90;;;;;;4977930;28;20105;-68
2022/01/31 06:03:14;;;;;;;17.33;3.05;;;4.40;99.90;;;;;;4994693;28;20057;-68
2022/01/31 06:05:40;;;;;;;14.35;2.10;;;4.50;99.90;;;;;;4994711;28;20039;-68
2022/01/31 06:08:05;;;;;;;9.65;1.70;;;4.40;99.90;;;;;;4996420;28;20088;-69
2022/01/31 06:10:33;;;;;;;9.88;1.88;;;4.40;99.90;;;;;;4980595;28;20054;-67
2022/01/31 06:12:58;;;;;;;22.13;2.30;;;4.50;99.90;;;;;;4995892;28;20085;-68
2022/01/31 06:15:24;;;;;;;10.07;2.53;;;4.50;99.90;;;;;;5006731;28;20092;-68
2022/01/31 06:17:49;;;;;;;9.73;1.83;;;4.50;99.90;;;;;;4988719;28;20129;-69
2022/01/31 06:20:15;;;;;;;10.00;1.80;;;4.50;99.90;;;;;;4998434;28;20046;-69
2022/01/31 06:22:59;;;;;;;13.80;1.98;;;4.50;99.90;;;;;;4997404;28;20116;-69
2022/01/31 06:25:25;;;;;;;16.48;2.80;;;4.50;99.90;;;;;;4998564;28;20085;-67
2022/01/31 06:27:52;;;;;;;13.80;2.45;;;4.60;99.90;;;;;;4981076;28;20461;-68
2022/01/31 06:30:17;;;;;;;13.18;2.58;;;4.50;99.90;;;;;;4981691;28;20054;-68
2022/01/31 06:32:43;;;;;;;13.27;2.28;;;4.60;99.90;;;;;;4981254;28;20133;-69
2022/01/31 06:35:09;;;;;;;11.95;2.35;;;4.60;99.90;;;;;;4980378;28;20035;-68
2022/01/31 06:37:35;;;;;;;17.25;2.78;;;4.60;99.90;;;;;;4981300;28;20065;-69
2022/01/31 06:40:01;;;;;;;17.50;2.55;;;4.60;99.90;;;;;;4980922;28;20046;-68
2022/01/31 06:42:27;;;;;;;12.85;2.38;;;4.60;99.90;;;;;;4998650;28;20050;-67
2022/01/31 06:44:53;;;;;;;18.52;2.17;;;4.60;99.90;;;;;;4980738;28;20077;-69
2022/01/31 06:47:19;;;;;;;11.20;2.33;;;4.60;99.90;;;;;;4980886;28;20352;-68
2022/01/31 06:49:46;;;;;;;14.45;2.63;;;5.10;99.90;;;;;;4981036;28;20050;-68
2022/01/31 06:52:11;;;;;;;16.65;2.20;;;4.70;99.90;;;;;;4997954;28;20371;-68
2022/01/31 06:54:37;;;;;;;14.65;2.00;;;4.70;99.90;;;;;;4980931;28;20038;-65
2022/01/31 06:57:04;;;;;;;13.18;2.22;;;4.70;99.90;;;;;;4980414;28;20466;-67
2022/01/31 06:59:30;;;;;;;13.27;2.15;;;4.70;99.90;;;;;;4996304;28;20042;-70
2022/01/31 07:01:56;;;;;;;13.05;2.03;;;4.70;99.90;;;;;;4996381;28;20105;-68
2022/01/31 07:04:21;;;;;;;7.95;1.65;;;4.70;99.90;;;;;;4979192;28;20061;-69
2022/01/31 07:06:47;;;;;;;12.18;1.90;;;4.70;99.90;;;;;;4991033;28;20057;-69
2022/01/31 07:09:12;;;;;;;11.13;1.58;;;4.70;99.90;;;;;;4999547;28;20045;-67
2022/01/31 07:11:41;;;;;;;7.05;1.50;;;4.80;99.90;;;;;;4984748;28;20038;-67
2022/01/31 07:14:51;;;;;;;6.55;1.50;;;4.80;99.90;;;;;;5011660;28;20072;-68
2022/01/31 07:16:52;;;;;;;12.20;1.63;;;5.00;99.90;;;;;;4970439;28;20068;-67
2022/01/31 07:19:21;;;;;;;9.43;1.70;;;4.80;99.90;;;;;;5006868;28;20051;-68
2022/01/31 07:21:50;;;;;;;10.25;2.03;;;4.90;99.90;;;;;;4992412;28;20065;-67
2022/01/31 07:24:21;;;;;;;11.10;1.83;;;4.80;99.90;;;;;;4978150;28;20065;-68
2022/01/31 07:26:47;;;;;;;15.60;2.10;;;4.90;99.90;;;;;;4978959;28;20042;-69
2022/01/31 07:29:14;;;;;;;10.05;2.10;;;4.80;99.90;;;;;;5005274;28;20129;-68
2022/01/31 07:31:40;;;;;;;18.00;2.35;;;4.80;99.90;;;;;;4976436;28;20054;-68
2022/01/31 07:34:07;;;;;;;12.75;2.47;;;4.80;99.90;;;;;;4997332;28;20117;-68
2022/01/31 07:36:34;;;;;;;12.63;1.75;;;4.80;99.90;;;;;;4983393;28;20073;-68
2022/01/31 07:39:00;;;;;;;13.85;2.53;;;5.10;99.90;;;;;;4996218;28;20058;-68
2022/01/31 07:41:26;;;;;;;9.88;2.20;;;4.90;99.90;;;;;;4995822;28;20474;-67
2022/01/31 07:43:52;;;;;;;16.33;2.58;;;4.90;99.90;;;;;;4995833;28;20054;-68
2022/01/31 07:46:17;;;;;;;15.23;2.67;;;4.90;99.90;;;;;;4995530;28;20053;-68
2022/01/31 07:48:43;;;;;;;18.45;2.25;;;4.90;99.90;;;;;;4995111;28;20085;-70
2022/01/31 07:51:09;;;;;;;12.23;2.30;;;4.90;99.90;;;;;;4978868;28;20130;-67
2022/01/31 07:53:38;;;;;;;16.13;2.58;;;5.00;99.90;;;;;;4996498;28;20057;-67
2022/01/31 07:56:07;;;;;;;14.73;1.92;;;5.00;99.90;;;;;;4979672;28;20058;-67
2022/01/31 07:58:33;;;;;;;11.88;1.90;;;5.00;99.90;;;;;;4995923;28;20064;-68
2022/01/31 08:01:00;;;;;;;17.77;2.72;;;5.00;99.90;;;;;;4978015;28;20331;-67
2022/01/31 08:03:25;;;;;;;9.35;2.10;;;5.00;99.90;;;;;;4979409;28;20058;-66
2022/01/31 08:05:51;;;;;;;14.48;2.08;;;5.00;99.90;;;;;;4978182;28;20058;-68
2022/01/31 08:08:16;;;;;;;13.32;2.63;;;5.00;99.90;;;;;;4995801;28;20054;-67
2022/01/31 08:10:42;;;;;;;12.95;2.25;;;5.00;99.90;;;;;;4978745;28;20054;-67
2022/01/31 08:13:09;;;;;;;11.93;2.45;;;5.00;99.90;;;;;;4995940;28;20046;-67
2022/01/31 08:15:45;;;;;;;12.38;1.85;;;5.00;99.90;;;;;;4978601;28;20061;-67
2022/01/31 08:18:11;;;;;;;10.35;2.17;;;5.00;99.90;;;;;;4978995;28;20065;-67
2022/01/31 08:20:37;;;;;;;11.35;1.77;;;4.90;99.90;;;;;;4994701;28;20054;-67
2022/01/31 08:23:02;;;;;;;16.67;2.10;;;4.90;99.90;;;;;;4980152;28;20046;-67
2022/01/31 08:25:29;;;;;;;10.98;2.30;;;4.80;99.90;;;;;;4978271;28;20057;-66
2022/01/31 08:28:00;;;;;;;11.88;2.08;;;4.80;99.90;;;;;;4995717;28;20133;-68
2022/01/31 08:30:36;;;;;;;8.13;1.65;;;4.80;99.90;;;;;;4978420;28;20053;-67
2022/01/31 08:33:12;;;;;;;8.95;1.60;;;4.80;99.90;;;;;;4977878;28;20375;-67
2022/01/31 08:35:50;;;;;;;13.05;2.00;;;4.80;99.90;;;;;;4977621;28;20064;-67
2022/01/31 08:38:19;;;;;;;12.05;1.92;;;4.90;99.90;;;;;;4978081;28;20058;-68
2022/01/31 08:40:45;;;;;;;11.27;2.00;;;4.90;99.90;;;;;;4994387;28;20423;-67
2022/01/31 08:43:12;;;;;;;12.70;2.40;;;5.00;99.90;;;;;;4994640;28;20446;-66
2022/01/31 08:45:38;;;;;;;11.35;2.10;;;5.20;99.90;;;;;;4993854;28;20058;-67
2022/01/31 08:48:04;;;;;;;11.15;1.67;;;5.20;99.90;;;;;;4994835;28;20046;-66
2022/01/31 08:50:30;;;;;;;16.60;3.00;;;5.30;99.90;;;;;;4995670;28;20503;-68
2022/01/31 08:52:56;;;;;;;16.35;2.92;;;5.30;99.90;;;;;;4994842;28;20054;-66
2022/01/31 08:55:23;;;;;;;16.02;2.58;;;5.40;99.90;;;;;;4995966;28;20475;-68
2022/01/31 08:57:52;;;;;;;13.00;2.30;;;5.50;99.90;;;;;;4993625;28;20347;-68
2022/01/31 09:00:19;;;;;;;12.93;1.88;;;5.60;99.90;;;;;;4978798;28;20050;-68
2022/01/31 09:03:00;;;;;;;15.75;2.15;;;5.60;99.90;;;;;;5000242;28;20128;-68
2022/01/31 09:05:25;;;;;;;12.52;2.28;;;5.60;99.90;;;;;;5002706;28;20442;-67
2022/01/31 09:07:51;;;;;;;13.18;2.20;;;5.70;99.90;;;;;;4978224;28;20049;-69
2022/01/31 09:10:18;;;;;;;12.27;2.42;;;5.70;99.90;;;;;;4978391;28;20061;-68
2022/01/31 09:12:44;;;;;;;14.63;2.28;;;5.80;99.90;;;;;;4994595;28;20050;-68
2022/01/31 09:15:12;;;;;;;12.30;1.95;;;5.90;99.90;;;;;;4994370;28;20050;-68
2022/01/31 09:17:40;;;;;;;19.60;2.38;;;6.00;99.90;;;;;;4995088;28;20046;-68
2022/01/31 09:20:06;;;;;;;17.33;2.40;;;6.00;99.90;;;;;;4994925;28;20458;-68
2022/01/31 09:22:32;;;;;;;11.20;1.60;;;6.00;99.90;;;;;;4978004;28;20112;-67
2022/01/31 09:24:58;;;;;;;12.27;1.83;;;5.90;99.90;;;;;;4976392;28;20046;-68
2022/01/31 09:27:23;;;;;;;16.38;2.22;;;5.80;99.90;;;;;;4977837;28;20483;-68
2022/01/31 09:29:49;;;;;;;14.00;2.03;;;5.80;99.90;;;;;;4977389;28;20069;-67
2022/01/31 09:32:20;;;;;;;14.60;2.50;;;5.80;99.90;;;;;;4994804;28;20042;-68
2022/01/31 09:34:46;;;;;;;13.23;2.20;;;6.00;99.90;;;;;;4978099;28;20058;-68
2022/01/31 09:37:12;;;;;;;17.05;2.50;;;6.10;99.90;;;;;;4994764;28;20070;-70
2022/01/31 09:39:37;;;;;;;11.60;2.30;;;6.10;99.90;;;;;;4994753;28;20047;-68
2022/01/31 09:42:07;;;;;;;11.68;2.10;;;6.20;99.90;;;;;;5000501;28;20112;-69
2022/01/31 09:45:02;;;;;;;14.10;2.15;;;6.20;99.90;;;;;;5005486;28;20109;-71
2022/01/31 09:50:12;;;;;;;16.92;2.08;;;6.20;99.90;;;;;;4989745;28;20041;-68
2022/01/31 09:52:38;;;;;;;17.02;2.28;;;6.30;99.90;;;;;;5018289;28;20061;-69
2022/01/31 09:55:06;;;;;;;14.75;1.88;;;6.30;99.90;;;;;;5018319;28;20058;-67
2022/01/31 09:57:31;;;;;;;10.45;1.90;;;6.30;99.90;;;;;;5018378;28;20043;-67
2022/01/31 09:59:57;;;;;;;12.27;2.20;;;6.30;99.90;;;;;;5018412;28;20072;-69
2022/01/31 10:02:22;;;;;;;6.32;2.05;;;6.20;99.90;;;;;;4998601;28;20050;-69
2022/01/31 10:04:48;;;;;;;8.00;1.80;;;6.20;99.90;;;;;;4998430;28;20050;-68
2022/01/31 10:07:15;;;;;;;16.00;1.80;;;6.20;99.90;;;;;;4998664;28;20077;-68
2022/01/31 10:09:47;;;;;;;9.77;1.58;;;6.20;99.90;;;;;;5000453;28;20046;-67
2022/01/31 10:17:48;;;;;;;10.98;1.50;;;6.10;99.90;;;;;;5004180;28;20065;-69
2022/01/31 10:20:34;;;;;;;9.45;1.65;;;6.20;99.90;;;;;;4996802;28;20129;-69
2022/01/31 10:23:15;;;;;;;12.48;2.42;;;6.20;99.90;;;;;;4998389;28;20057;-69
2022/01/31 10:25:43;;;;;;;14.50;2.10;;;6.30;99.90;;;;;;4998242;28;20141;-69
2022/01/31 10:28:19;;;;;;;21.13;2.25;;;6.30;99.90;;;;;;4998204;28;20340;-69
2022/01/31 10:30:47;;;;;;;12.85;1.90;;;6.40;99.90;;;;;;4998218;28;20185;-68
2022/01/31 10:33:14;;;;;;;14.95;2.70;;;6.50;99.90;;;;;;4980632;28;20046;-69
2022/01/31 10:35:41;;;;;;;12.15;1.95;;;6.60;99.90;;;;;;4980602;28;20462;-68
2022/01/31 10:38:11;;;;;;;15.40;2.33;;;6.80;99.90;;;;;;4979969;28;20062;-68
2022/01/31 10:50:36;;;;;;;11.13;2.03;;;7.00;99.90;;;;;;4997833;28;20101;-69
2022/01/31 10:52:05;;;;;;;12.15;2.25;;;7.20;99.90;;;;;;4997856;28;20054;-69
2022/01/31 10:57:02;;;;;;;17.38;2.30;;;7.20;99.90;;;;;;4979153;28;20086;-69
2022/01/31 10:59:35;;;;;;;12.90;1.98;;;7.30;99.90;;;;;;4997364;28;20108;-67
2022/01/31 11:02:04;;;;;;;12.75;2.35;;;7.30;99.90;;;;;;4996581;28;20073;-68
2022/01/31 11:04:34;;;;;;;13.57;2.20;;;7.30;99.90;;;;;;4979523;28;20054;-69
2022/01/31 11:07:22;;;;;;;12.75;2.10;;;7.20;99.90;;;;;;4980228;28;20050;-68
2022/01/31 11:09:49;;;;;;;20.70;2.92;;;7.20;99.90;;;;;;4996293;28;20058;-69
2022/01/31 11:12:15;;;;;;;17.13;2.97;;;7.20;99.90;;;;;;4996544;28;20054;-69
2022/01/31 11:14:43;;;;;;;14.65;2.58;;;7.20;99.90;;;;;;4997059;28;20050;-70
2022/01/31 11:17:12;;;;;;;11.65;2.50;;;7.20;99.90;;;;;;4996874;28;20200;-67
2022/01/31 11:19:40;;;;;;;15.07;2.50;;;7.20;99.90;;;;;;4996918;28;20116;-69
2022/01/31 11:22:09;;;;;;;14.07;2.60;;;7.20;99.90;;;;;;4979085;28;20047;-68
2022/01/31 11:24:41;;;;;;;19.33;2.40;;;7.20;99.90;;;;;;5012987;28;20375;-67
2022/01/31 11:27:08;;;;;;;15.60;2.17;;;7.30;99.90;;;;;;5016450;28;20141;-68
2022/01/31 11:29:37;;;;;;;10.32;2.20;;;7.30;99.90;;;;;;5016592;28;20049;-69
2022/01/31 11:32:04;;;;;;;18.60;2.22;;;7.40;99.90;;;;;;5000580;28;20046;-68
2022/01/31 11:34:31;;;;;;;14.60;2.45;;;7.50;99.90;;;;;;4996641;28;20332;-68
2022/01/31 11:36:57;;;;;;;15.57;2.45;;;7.50;99.90;;;;;;4979488;28;20051;-68
2022/01/31 11:39:23;;;;;;;17.05;2.67;;;7.60;99.90;;;;;;4996058;28;20438;-71
2022/01/31 11:41:55;;;;;;;17.15;2.88;;;7.60;99.90;;;;;;4996329;28;20046;-69
2022/01/31 11:44:41;;;;;;;14.27;2.80;;;7.70;99.90;;;;;;4994806;28;20585;-69
2022/01/31 11:47:08;;;;;;;21.50;2.58;;;7.80;99.90;;;;;;4982371;28;20046;-69
2022/01/31 11:49:47;;;;;;;13.63;2.30;;;7.90;99.90;;;;;;4981600;28;20057;-69
2022/01/31 11:52:14;;;;;;;16.88;2.60;;;8.10;99.90;;;;;;4979118;28;20069;-68
2022/01/31 11:54:55;;;;;;;25.67;2.90;;;8.20;99.90;;;;;;4976974;28;20043;-69
2022/01/31 11:57:25;;;;;;;18.15;2.78;;;8.40;99.90;;;;;;4976627;28;20053;-69
2022/01/31 11:59:53;;;;;;;15.05;2.45;;;8.40;99.90;;;;;;4982020;28;20410;-69
2022/01/31 12:02:20;;;;;;;13.23;2.70;;;8.50;99.90;;;;;;4982430;28;20066;-68
2022/01/31 12:04:49;;;;;;;19.17;3.40;;;8.50;99.90;;;;;;4987535;28;20039;-69
2022/01/31 12:07:41;;;;;;;19.35;3.35;;;8.40;99.90;;;;;;4995896;28;20054;-69
2022/01/31 12:10:09;;;;;;;20.75;3.40;;;8.50;99.90;;;;;;4978671;28;20054;-69
2022/01/31 12:12:48;;;;;;;24.30;3.50;;;8.40;99.90;;;;;;4996151;28;20054;-72
2022/01/31 12:23:35;;;;;;;18.00;3.10;;;8.40;99.90;;;;;;4983172;28;20153;-69
2022/01/31 12:26:03;;;;;;;25.77;3.58;;;8.30;99.90;;;;;;4970336;28;20051;-68
2022/01/31 12:28:38;;;;;;;18.05;2.92;;;8.20;99.90;;;;;;4959240;28;20050;-70
2022/01/31 12:31:34;;;;;;;21.75;3.83;;;8.10;99.90;;;;;;4983036;28;20490;-67
2022/01/31 12:34:01;;;;;;;19.02;3.17;;;8.20;99.90;;;;;;4986486;28;20120;-67
2022/01/31 12:36:36;;;;;;;21.95;3.47;;;8.20;99.90;;;;;;4995800;28;20050;-67
2022/01/31 12:39:31;;;;;;;19.52;2.95;;;8.30;99.90;;;;;;4976504;28;20054;-68
2022/01/31 12:42:03;;;;;;;18.90;2.80;;;8.30;99.90;;;;;;4989621;28;20058;-69
2022/01/31 12:44:29;;;;;;;25.15;3.40;;;8.30;99.90;;;;;;4973630;28;20050;-70
2022/01/31 12:47:11;;;;;;;16.33;2.80;;;8.20;99.90;;;;;;4977976;28;20455;-68
2022/01/31 12:49:36;;;;;;;18.30;2.78;;;8.10;99.90;;;;;;4995154;28;20078;-71
2022/01/31 12:52:05;;;;;;;18.15;3.10;;;8.10;99.90;;;;;;4977912;28;20088;-70
2022/01/31 12:54:32;;;;;;;18.77;2.85;;;8.00;99.90;;;;;;4996195;28;20054;-67
2022/01/31 12:57:13;;;;;;;18.05;3.45;;;8.00;99.90;;;;;;4963549;28;20108;-66
2022/01/31 12:59:40;;;;;;;15.85;2.90;;;8.00;99.90;;;;;;4976171;28;20053;-69
2022/01/31 13:02:10;;;;;;;15.02;2.70;;;8.20;99.90;;;;;;4991118;28;20064;-67
2022/01/31 13:04:37;;;;;;;27.27;4.68;;;8.10;99.90;;;;;;4973709;28;20510;-68
2022/01/31 13:07:08;;;;;;;24.02;3.15;;;8.20;99.90;;;;;;4974520;28;20041;-70
2022/01/31 13:09:37;;;;;;;13.70;2.80;;;8.20;99.90;;;;;;4974888;28;20057;-69
2022/01/31 13:12:10;;;;;;;17.13;3.78;;;8.20;99.90;;;;;;4957783;28;20053;-70
2022/01/31 13:14:40;;;;;;;19.92;2.97;;;8.30;99.90;;;;;;4967683;28;20045;-69
2022/01/31 13:17:13;;;;;;;18.20;4.00;;;8.30;99.90;;;;;;4973113;28;20137;-68